sensor_id;sensor_type;location;lat;lon;timestamp;P1;durP1;ratioP1;P2;durP2;ratioP2
26201;SDS011;13944;28.562;77.188;2023-01-19T00:00:44;268.30;;;164.47;;
26201;SDS011;13944;28.562;77.188;2023-01-19T00:03:11;263.97;;;170.10;;
26201;SDS011;13944;28.562;77.188;2023-01-19T00:05:41;265.90;;;168.50;;
26201;SDS011;13944;28.562;77.188;2023-01-19T00:08:08;260.10;;;161.00;;
26201;SDS011;13944;28.562;77.188;2023-01-19T00:10:41;266.33;;;164.90;;
26201;SDS011;13944;28.562;77.188;2023-01-19T00:13:08;264.10;;;163.53;;
26201;SDS011;13944;28.562;77.188;2023-01-19T00:15:34;265.30;;;165.93;;
26201;SDS011;13944;28.562;77.188;2023-01-19T00:18:01;267.70;;;166.33;;
26201;SDS011;13944;28.562;77.188;2023-01-19T00:20:27;275.53;;;169.67;;
26201;SDS011;13944;28.562;77.188;2023-01-19T00:22:57;265.03;;;166.63;;
26201;SDS011;13944;28.562;77.188;2023-01-19T00:25:23;276.23;;;170.57;;
26201;SDS011;13944;28.562;77.188;2023-01-19T00:27:50;282.30;;;174.43;;
26201;SDS011;13944;28.562;77.188;2023-01-19T00:30:16;273.73;;;176.20;;
26201;SDS011;13944;28.562;77.188;2023-01-19T00:32:43;294.57;;;179.87;;
26201;SDS011;13944;28.562;77.188;2023-01-19T00:35:09;281.97;;;182.47;;
26201;SDS011;13944;28.562;77.188;2023-01-19T00:37:36;265.67;;;171.93;;
26201;SDS011;13944;28.562;77.188;2023-01-19T00:40:03;290.63;;;178.40;;
26201;SDS011;13944;28.562;77.188;2023-01-19T00:42:29;273.30;;;171.37;;
26201;SDS011;13944;28.562;77.188;2023-01-19T00:45:15;267.23;;;170.47;;
26201;SDS011;13944;28.562;77.188;2023-01-19T00:47:45;260.27;;;165.93;;
26201;SDS011;13944;28.562;77.188;2023-01-19T00:50:13;267.80;;;168.57;;
26201;SDS011;13944;28.562;77.188;2023-01-19T00:52:41;278.87;;;173.97;;
26201;SDS011;13944;28.562;77.188;2023-01-19T00:55:09;274.83;;;177.50;;
26201;SDS011;13944;28.562;77.188;2023-01-19T00:57:36;276.77;;;179.47;;
26201;SDS011;13944;28.562;77.188;2023-01-19T01:00:04;277.93;;;178.63;;
26201;SDS011;13944;28.562;77.188;2023-01-19T01:02:31;288.03;;;182.13;;
26201;SDS011;13944;28.562;77.188;2023-01-19T01:04:58;281.07;;;180.13;;
26201;SDS011;13944;28.562;77.188;2023-01-19T01:07:27;282.00;;;181.53;;
26201;SDS011;13944;28.562;77.188;2023-01-19T01:09:54;292.33;;;183.93;;
26201;SDS011;13944;28.562;77.188;2023-01-19T01:12:21;280.10;;;182.43;;
26201;SDS011;13944;28.562;77.188;2023-01-19T01:14:48;285.50;;;184.27;;
26201;SDS011;13944;28.562;77.188;2023-01-19T01:17:14;294.80;;;181.77;;
26201;SDS011;13944;28.562;77.188;2023-01-19T01:19:41;289.97;;;182.60;;
26201;SDS011;13944;28.562;77.188;2023-01-19T01:22:08;299.23;;;193.50;;
26201;SDS011;13944;28.562;77.188;2023-01-19T01:24:35;319.60;;;196.17;;
26201;SDS011;13944;28.562;77.188;2023-01-19T01:27:04;316.30;;;198.70;;
26201;SDS011;13944;28.562;77.188;2023-01-19T01:29:31;317.87;;;197.57;;
26201;SDS011;13944;28.562;77.188;2023-01-19T01:31:59;306.93;;;198.17;;
26201;SDS011;13944;28.562;77.188;2023-01-19T01:34:26;303.97;;;191.10;;
26201;SDS011;13944;28.562;77.188;2023-01-19T01:36:53;295.93;;;187.57;;
26201;SDS011;13944;28.562;77.188;2023-01-19T01:39:19;289.50;;;187.17;;
26201;SDS011;13944;28.562;77.188;2023-01-19T01:41:46;313.87;;;189.50;;
26201;SDS011;13944;28.562;77.188;2023-01-19T01:46:58;334.17;;;200.97;;
26201;SDS011;13944;28.562;77.188;2023-01-19T01:49:25;311.83;;;201.47;;
26201;SDS011;13944;28.562;77.188;2023-01-19T01:51:52;320.03;;;205.10;;
26201;SDS011;13944;28.562;77.188;2023-01-19T01:54:20;345.03;;;214.40;;
26201;SDS011;13944;28.562;77.188;2023-01-19T01:56:51;323.00;;;209.87;;
26201;SDS011;13944;28.562;77.188;2023-01-19T01:59:29;318.83;;;204.97;;
26201;SDS011;13944;28.562;77.188;2023-01-19T02:02:00;329.40;;;204.57;;
26201;SDS011;13944;28.562;77.188;2023-01-19T02:04:46;327.50;;;207.73;;
26201;SDS011;13944;28.562;77.188;2023-01-19T02:07:15;326.90;;;199.67;;
26201;SDS011;13944;28.562;77.188;2023-01-19T02:10:01;318.83;;;205.00;;
26201;SDS011;13944;28.562;77.188;2023-01-19T02:12:46;315.60;;;221.73;;
26201;SDS011;13944;28.562;77.188;2023-01-19T02:15:31;319.97;;;203.80;;
26201;SDS011;13944;28.562;77.188;2023-01-19T02:17:57;336.23;;;210.47;;
26201;SDS011;13944;28.562;77.188;2023-01-19T02:20:25;341.50;;;218.57;;
26201;SDS011;13944;28.562;77.188;2023-01-19T02:22:53;330.10;;;214.03;;
26201;SDS011;13944;28.562;77.188;2023-01-19T02:25:20;325.90;;;219.30;;
26201;SDS011;13944;28.562;77.188;2023-01-19T02:27:47;339.73;;;218.93;;
26201;SDS011;13944;28.562;77.188;2023-01-19T02:30:14;332.02;;;228.73;;
26201;SDS011;13944;28.562;77.188;2023-01-19T02:32:41;340.03;;;227.70;;
26201;SDS011;13944;28.562;77.188;2023-01-19T02:35:08;321.43;;;215.70;;
26201;SDS011;13944;28.562;77.188;2023-01-19T02:37:36;329.63;;;209.03;;
26201;SDS011;13944;28.562;77.188;2023-01-19T02:40:06;317.50;;;205.27;;
26201;SDS011;13944;28.562;77.188;2023-01-19T02:45:04;317.33;;;202.60;;
26201;SDS011;13944;28.562;77.188;2023-01-19T02:47:44;337.97;;;207.80;;
26201;SDS011;13944;28.562;77.188;2023-01-19T02:52:59;326.73;;;207.90;;
26201;SDS011;13944;28.562;77.188;2023-01-19T02:55:31;340.60;;;212.90;;
26201;SDS011;13944;28.562;77.188;2023-01-19T03:01:06;333.77;;;208.77;;
26201;SDS011;13944;28.562;77.188;2023-01-19T03:04:00;318.70;;;199.43;;
26201;SDS011;13944;28.562;77.188;2023-01-19T03:06:35;329.77;;;210.30;;
26201;SDS011;13944;28.562;77.188;2023-01-19T03:09:13;330.53;;;213.20;;
26201;SDS011;13944;28.562;77.188;2023-01-19T03:11:41;327.87;;;212.73;;
26201;SDS011;13944;28.562;77.188;2023-01-19T03:14:10;325.57;;;214.77;;
26201;SDS011;13944;28.562;77.188;2023-01-19T03:16:40;325.20;;;210.17;;
26201;SDS011;13944;28.562;77.188;2023-01-19T03:19:08;328.70;;;208.43;;
26201;SDS011;13944;28.562;77.188;2023-01-19T03:21:36;323.93;;;207.70;;
26201;SDS011;13944;28.562;77.188;2023-01-19T03:24:05;317.47;;;205.57;;
26201;SDS011;13944;28.562;77.188;2023-01-19T03:26:35;316.73;;;204.77;;
26201;SDS011;13944;28.562;77.188;2023-01-19T03:29:02;317.60;;;198.80;;
26201;SDS011;13944;28.562;77.188;2023-01-19T03:31:31;308.67;;;198.80;;
26201;SDS011;13944;28.562;77.188;2023-01-19T03:34:02;302.30;;;186.70;;
26201;SDS011;13944;28.562;77.188;2023-01-19T03:36:33;287.40;;;186.67;;
26201;SDS011;13944;28.562;77.188;2023-01-19T03:39:00;267.43;;;162.70;;
26201;SDS011;13944;28.562;77.188;2023-01-19T03:41:27;287.20;;;176.73;;
26201;SDS011;13944;28.562;77.188;2023-01-19T03:43:56;288.27;;;176.87;;
26201;SDS011;13944;28.562;77.188;2023-01-19T03:46:24;293.77;;;179.90;;
26201;SDS011;13944;28.562;77.188;2023-01-19T03:48:51;268.87;;;166.80;;
26201;SDS011;13944;28.562;77.188;2023-01-19T03:51:18;234.40;;;150.50;;
26201;SDS011;13944;28.562;77.188;2023-01-19T03:53:45;249.07;;;152.77;;
26201;SDS011;13944;28.562;77.188;2023-01-19T03:56:18;246.03;;;143.87;;
26201;SDS011;13944;28.562;77.188;2023-01-19T03:58:45;241.03;;;146.57;;
26201;SDS011;13944;28.562;77.188;2023-01-19T04:01:11;221.67;;;138.77;;
26201;SDS011;13944;28.562;77.188;2023-01-19T04:03:39;226.53;;;138.93;;
26201;SDS011;13944;28.562;77.188;2023-01-19T04:06:06;240.67;;;144.50;;
26201;SDS011;13944;28.562;77.188;2023-01-19T04:08:32;238.40;;;146.00;;
26201;SDS011;13944;28.562;77.188;2023-01-19T04:10:59;248.10;;;153.97;;
26201;SDS011;13944;28.562;77.188;2023-01-19T04:13:26;256.47;;;152.70;;
26201;SDS011;13944;28.562;77.188;2023-01-19T04:15:56;248.10;;;151.13;;
26201;SDS011;13944;28.562;77.188;2023-01-19T04:18:24;235.93;;;146.33;;
26201;SDS011;13944;28.562;77.188;2023-01-19T04:20:50;245.73;;;150.30;;
26201;SDS011;13944;28.562;77.188;2023-01-19T04:23:20;257.33;;;153.87;;
26201;SDS011;13944;28.562;77.188;2023-01-19T04:25:46;244.93;;;150.70;;
26201;SDS011;13944;28.562;77.188;2023-01-19T04:28:13;254.47;;;152.13;;
26201;SDS011;13944;28.562;77.188;2023-01-19T04:30:39;242.53;;;150.53;;
26201;SDS011;13944;28.562;77.188;2023-01-19T04:33:06;241.57;;;149.53;;
26201;SDS011;13944;28.562;77.188;2023-01-19T04:35:33;221.53;;;135.60;;
26201;SDS011;13944;28.562;77.188;2023-01-19T04:37:59;199.90;;;119.77;;
26201;SDS011;13944;28.562;77.188;2023-01-19T04:40:26;171.00;;;106.60;;
26201;SDS011;13944;28.562;77.188;2023-01-19T04:42:52;190.33;;;120.70;;
26201;SDS011;13944;28.562;77.188;2023-01-19T04:45:19;202.93;;;121.37;;
26201;SDS011;13944;28.562;77.188;2023-01-19T04:47:45;207.27;;;123.30;;
26201;SDS011;13944;28.562;77.188;2023-01-19T04:50:12;192.23;;;118.27;;
26201;SDS011;13944;28.562;77.188;2023-01-19T04:52:39;177.13;;;112.40;;
26201;SDS011;13944;28.562;77.188;2023-01-19T04:55:06;179.87;;;107.10;;
26201;SDS011;13944;28.562;77.188;2023-01-19T04:57:32;154.00;;;97.83;;
26201;SDS011;13944;28.562;77.188;2023-01-19T04:59:59;163.77;;;95.33;;
26201;SDS011;13944;28.562;77.188;2023-01-19T05:02:25;158.07;;;96.70;;
26201;SDS011;13944;28.562;77.188;2023-01-19T05:04:52;152.37;;;96.90;;
26201;SDS011;13944;28.562;77.188;2023-01-19T05:07:18;150.27;;;90.77;;
26201;SDS011;13944;28.562;77.188;2023-01-19T05:09:45;146.17;;;91.93;;
26201;SDS011;13944;28.562;77.188;2023-01-19T05:12:11;156.07;;;95.10;;
26201;SDS011;13944;28.562;77.188;2023-01-19T05:14:38;156.17;;;99.57;;
26201;SDS011;13944;28.562;77.188;2023-01-19T05:17:05;136.97;;;85.77;;
26201;SDS011;13944;28.562;77.188;2023-01-19T05:19:31;151.30;;;90.47;;
26201;SDS011;13944;28.562;77.188;2023-01-19T05:21:58;150.80;;;96.00;;
26201;SDS011;13944;28.562;77.188;2023-01-19T05:24:24;155.93;;;97.13;;
26201;SDS011;13944;28.562;77.188;2023-01-19T05:26:51;151.53;;;96.53;;
26201;SDS011;13944;28.562;77.188;2023-01-19T05:29:17;152.30;;;92.77;;
26201;SDS011;13944;28.562;77.188;2023-01-19T05:31:45;148.60;;;86.80;;
26201;SDS011;13944;28.562;77.188;2023-01-19T05:34:12;150.10;;;90.23;;
26201;SDS011;13944;28.562;77.188;2023-01-19T05:36:39;135.73;;;86.73;;
26201;SDS011;13944;28.562;77.188;2023-01-19T05:39:05;138.43;;;87.47;;
26201;SDS011;13944;28.562;77.188;2023-01-19T05:41:32;127.10;;;80.57;;
26201;SDS011;13944;28.562;77.188;2023-01-19T05:43:59;140.60;;;87.70;;
26201;SDS011;13944;28.562;77.188;2023-01-19T05:46:25;145.03;;;84.13;;
26201;SDS011;13944;28.562;77.188;2023-01-19T05:48:52;136.93;;;80.40;;
26201;SDS011;13944;28.562;77.188;2023-01-19T05:51:18;137.87;;;83.07;;
26201;SDS011;13944;28.562;77.188;2023-01-19T05:53:45;143.13;;;86.43;;
26201;SDS011;13944;28.562;77.188;2023-01-19T05:56:11;126.37;;;75.47;;
26201;SDS011;13944;28.562;77.188;2023-01-19T05:58:38;126.00;;;75.47;;
26201;SDS011;13944;28.562;77.188;2023-01-19T06:01:05;122.87;;;74.40;;
26201;SDS011;13944;28.562;77.188;2023-01-19T06:03:32;115.83;;;69.93;;
26201;SDS011;13944;28.562;77.188;2023-01-19T06:05:59;117.30;;;71.63;;
26201;SDS011;13944;28.562;77.188;2023-01-19T06:08:26;117.63;;;71.50;;
26201;SDS011;13944;28.562;77.188;2023-01-19T06:10:53;96.30;;;61.70;;
26201;SDS011;13944;28.562;77.188;2023-01-19T06:13:19;97.57;;;64.43;;
26201;SDS011;13944;28.562;77.188;2023-01-19T06:15:46;99.90;;;66.83;;
26201;SDS011;13944;28.562;77.188;2023-01-19T06:18:13;107.63;;;69.30;;
26201;SDS011;13944;28.562;77.188;2023-01-19T06:20:39;108.83;;;71.03;;
26201;SDS011;13944;28.562;77.188;2023-01-19T06:23:06;101.23;;;62.43;;
26201;SDS011;13944;28.562;77.188;2023-01-19T06:25:33;108.97;;;68.67;;
26201;SDS011;13944;28.562;77.188;2023-01-19T06:27:59;119.13;;;74.57;;
26201;SDS011;13944;28.562;77.188;2023-01-19T06:30:26;122.97;;;77.37;;
26201;SDS011;13944;28.562;77.188;2023-01-19T06:32:55;135.20;;;81.90;;
26201;SDS011;13944;28.562;77.188;2023-01-19T06:35:22;124.37;;;82.13;;
26201;SDS011;13944;28.562;77.188;2023-01-19T06:37:48;110.93;;;70.23;;
26201;SDS011;13944;28.562;77.188;2023-01-19T06:40:15;106.97;;;69.53;;
26201;SDS011;13944;28.562;77.188;2023-01-19T06:42:41;120.07;;;73.23;;
26201;SDS011;13944;28.562;77.188;2023-01-19T06:45:08;119.10;;;72.30;;
26201;SDS011;13944;28.562;77.188;2023-01-19T06:47:35;124.10;;;75.87;;
26201;SDS011;13944;28.562;77.188;2023-01-19T06:50:01;118.90;;;74.63;;
26201;SDS011;13944;28.562;77.188;2023-01-19T06:52:28;129.20;;;81.17;;
26201;SDS011;13944;28.562;77.188;2023-01-19T06:54:54;120.00;;;75.67;;
26201;SDS011;13944;28.562;77.188;2023-01-19T06:57:21;123.87;;;77.90;;
26201;SDS011;13944;28.562;77.188;2023-01-19T06:59:50;134.60;;;80.40;;
26201;SDS011;13944;28.562;77.188;2023-01-19T07:02:16;114.63;;;73.23;;
26201;SDS011;13944;28.562;77.188;2023-01-19T07:04:47;133.23;;;82.73;;
26201;SDS011;13944;28.562;77.188;2023-01-19T07:07:14;143.60;;;90.43;;
26201;SDS011;13944;28.562;77.188;2023-01-19T07:09:41;143.87;;;91.23;;
26201;SDS011;13944;28.562;77.188;2023-01-19T07:12:08;133.90;;;84.23;;
26201;SDS011;13944;28.562;77.188;2023-01-19T07:14:34;133.43;;;82.97;;
26201;SDS011;13944;28.562;77.188;2023-01-19T07:17:01;135.23;;;84.67;;
26201;SDS011;13944;28.562;77.188;2023-01-19T07:19:27;128.87;;;80.70;;
26201;SDS011;13944;28.562;77.188;2023-01-19T07:21:54;144.37;;;88.53;;
26201;SDS011;13944;28.562;77.188;2023-01-19T07:24:20;118.97;;;76.63;;
26201;SDS011;13944;28.562;77.188;2023-01-19T07:26:47;134.43;;;86.03;;
26201;SDS011;13944;28.562;77.188;2023-01-19T07:29:13;125.57;;;80.13;;
26201;SDS011;13944;28.562;77.188;2023-01-19T07:31:40;132.20;;;81.70;;
26201;SDS011;13944;28.562;77.188;2023-01-19T07:34:06;129.57;;;80.23;;
26201;SDS011;13944;28.562;77.188;2023-01-19T07:36:33;131.73;;;80.87;;
26201;SDS011;13944;28.562;77.188;2023-01-19T07:39:00;136.87;;;82.83;;
26201;SDS011;13944;28.562;77.188;2023-01-19T07:41:27;134.47;;;83.10;;
26201;SDS011;13944;28.562;77.188;2023-01-19T07:43:53;115.67;;;75.63;;
26201;SDS011;13944;28.562;77.188;2023-01-19T07:46:19;126.77;;;76.80;;
26201;SDS011;13944;28.562;77.188;2023-01-19T07:48:46;130.30;;;80.97;;
26201;SDS011;13944;28.562;77.188;2023-01-19T07:51:13;119.77;;;81.10;;
26201;SDS011;13944;28.562;77.188;2023-01-19T07:53:48;128.97;;;83.90;;
26201;SDS011;13944;28.562;77.188;2023-01-19T07:56:14;117.63;;;73.70;;
26201;SDS011;13944;28.562;77.188;2023-01-19T07:58:41;139.13;;;88.40;;
26201;SDS011;13944;28.562;77.188;2023-01-19T08:01:08;133.20;;;85.43;;
26201;SDS011;13944;28.562;77.188;2023-01-19T08:03:35;119.17;;;77.03;;
26201;SDS011;13944;28.562;77.188;2023-01-19T08:06:02;132.13;;;82.53;;
26201;SDS011;13944;28.562;77.188;2023-01-19T08:08:30;130.30;;;82.63;;
26201;SDS011;13944;28.562;77.188;2023-01-19T08:10:56;135.77;;;86.23;;
26201;SDS011;13944;28.562;77.188;2023-01-19T08:13:23;135.47;;;86.70;;
26201;SDS011;13944;28.562;77.188;2023-01-19T08:15:50;125.23;;;82.10;;
26201;SDS011;13944;28.562;77.188;2023-01-19T08:18:17;124.40;;;78.27;;
26201;SDS011;13944;28.562;77.188;2023-01-19T08:20:44;144.07;;;88.27;;
26201;SDS011;13944;28.562;77.188;2023-01-19T08:23:10;123.77;;;79.00;;
26201;SDS011;13944;28.562;77.188;2023-01-19T08:25:38;134.33;;;84.90;;
26201;SDS011;13944;28.562;77.188;2023-01-19T08:28:08;124.17;;;77.30;;
26201;SDS011;13944;28.562;77.188;2023-01-19T08:30:35;132.87;;;86.83;;
26201;SDS011;13944;28.562;77.188;2023-01-19T08:33:02;118.57;;;71.53;;
26201;SDS011;13944;28.562;77.188;2023-01-19T08:35:36;127.77;;;79.07;;
26201;SDS011;13944;28.562;77.188;2023-01-19T08:38:03;129.63;;;82.30;;
26201;SDS011;13944;28.562;77.188;2023-01-19T08:40:33;120.90;;;78.33;;
26201;SDS011;13944;28.562;77.188;2023-01-19T08:43:01;122.90;;;77.10;;
26201;SDS011;13944;28.562;77.188;2023-01-19T08:45:32;117.67;;;75.07;;
26201;SDS011;13944;28.562;77.188;2023-01-19T08:47:59;123.07;;;77.13;;
26201;SDS011;13944;28.562;77.188;2023-01-19T08:50:26;131.60;;;85.33;;
26201;SDS011;13944;28.562;77.188;2023-01-19T08:53:00;137.87;;;86.63;;
26201;SDS011;13944;28.562;77.188;2023-01-19T08:55:27;131.17;;;83.80;;
26201;SDS011;13944;28.562;77.188;2023-01-19T08:57:54;111.20;;;70.77;;
26201;SDS011;13944;28.562;77.188;2023-01-19T09:00:22;115.57;;;73.60;;
26201;SDS011;13944;28.562;77.188;2023-01-19T09:02:52;119.80;;;73.67;;
26201;SDS011;13944;28.562;77.188;2023-01-19T09:05:19;108.57;;;69.53;;
26201;SDS011;13944;28.562;77.188;2023-01-19T09:07:45;119.53;;;73.63;;
26201;SDS011;13944;28.562;77.188;2023-01-19T09:10:16;103.83;;;66.03;;
26201;SDS011;13944;28.562;77.188;2023-01-19T09:12:43;118.27;;;74.30;;
26201;SDS011;13944;28.562;77.188;2023-01-19T09:15:11;131.40;;;75.40;;
26201;SDS011;13944;28.562;77.188;2023-01-19T09:17:38;117.43;;;69.80;;
26201;SDS011;13944;28.562;77.188;2023-01-19T09:20:06;120.23;;;73.93;;
26201;SDS011;13944;28.562;77.188;2023-01-19T09:22:33;129.27;;;77.07;;
26201;SDS011;13944;28.562;77.188;2023-01-19T09:24:59;109.37;;;70.10;;
26201;SDS011;13944;28.562;77.188;2023-01-19T09:27:26;112.17;;;66.27;;
26201;SDS011;13944;28.562;77.188;2023-01-19T09:29:53;110.97;;;65.43;;
26201;SDS011;13944;28.562;77.188;2023-01-19T09:32:20;111.60;;;70.93;;
26201;SDS011;13944;28.562;77.188;2023-01-19T09:34:47;107.70;;;68.17;;
26201;SDS011;13944;28.562;77.188;2023-01-19T09:37:13;123.93;;;77.97;;
26201;SDS011;13944;28.562;77.188;2023-01-19T09:39:40;124.17;;;77.63;;
26201;SDS011;13944;28.562;77.188;2023-01-19T09:44:33;128.30;;;77.67;;
26201;SDS011;13944;28.562;77.188;2023-01-19T09:47:01;124.63;;;80.50;;
26201;SDS011;13944;28.562;77.188;2023-01-19T09:49:32;109.20;;;67.77;;
26201;SDS011;13944;28.562;77.188;2023-01-19T09:52:00;123.13;;;73.50;;
26201;SDS011;13944;28.562;77.188;2023-01-19T09:56:53;115.97;;;72.97;;
26201;SDS011;13944;28.562;77.188;2023-01-19T09:59:24;132.07;;;82.90;;
26201;SDS011;13944;28.562;77.188;2023-01-19T10:09:55;125.13;;;76.90;;
26201;SDS011;13944;28.562;77.188;2023-01-19T10:12:30;140.07;;;87.93;;
26201;SDS011;13944;28.562;77.188;2023-01-19T10:15:12;138.30;;;84.40;;
26201;SDS011;13944;28.562;77.188;2023-01-19T10:20:10;144.50;;;89.00;;
26201;SDS011;13944;28.562;77.188;2023-01-19T10:22:39;147.00;;;89.53;;
26201;SDS011;13944;28.562;77.188;2023-01-19T10:25:12;141.13;;;82.23;;
26201;SDS011;13944;28.562;77.188;2023-01-19T10:27:42;142.97;;;88.20;;
26201;SDS011;13944;28.562;77.188;2023-01-19T10:30:14;145.53;;;89.97;;
26201;SDS011;13944;28.562;77.188;2023-01-19T10:32:42;130.10;;;81.37;;
26201;SDS011;13944;28.562;77.188;2023-01-19T10:35:20;139.37;;;86.43;;
26201;SDS011;13944;28.562;77.188;2023-01-19T10:37:50;135.83;;;84.27;;
26201;SDS011;13944;28.562;77.188;2023-01-19T10:42:53;157.40;;;95.90;;
26201;SDS011;13944;28.562;77.188;2023-01-19T10:47:46;154.43;;;93.10;;
26201;SDS011;13944;28.562;77.188;2023-01-19T10:50:32;163.93;;;95.30;;
26201;SDS011;13944;28.562;77.188;2023-01-19T10:53:00;159.97;;;97.47;;
26201;SDS011;13944;28.562;77.188;2023-01-19T10:55:30;151.53;;;91.43;;
26201;SDS011;13944;28.562;77.188;2023-01-19T10:57:57;167.40;;;94.70;;
26201;SDS011;13944;28.562;77.188;2023-01-19T11:03:22;181.00;;;105.40;;
26201;SDS011;13944;28.562;77.188;2023-01-19T11:05:49;176.13;;;102.13;;
26201;SDS011;13944;28.562;77.188;2023-01-19T11:08:31;190.17;;;108.40;;
26201;SDS011;13944;28.562;77.188;2023-01-19T11:10:58;158.83;;;90.37;;
26201;SDS011;13944;28.562;77.188;2023-01-19T11:13:28;196.13;;;105.80;;
26201;SDS011;13944;28.562;77.188;2023-01-19T11:15:55;203.80;;;108.93;;
26201;SDS011;13944;28.562;77.188;2023-01-19T11:18:35;198.90;;;105.23;;
26201;SDS011;13944;28.562;77.188;2023-01-19T11:21:03;201.67;;;112.40;;
26201;SDS011;13944;28.562;77.188;2023-01-19T11:23:33;171.27;;;100.00;;
26201;SDS011;13944;28.562;77.188;2023-01-19T11:26:06;195.63;;;106.30;;
26201;SDS011;13944;28.562;77.188;2023-01-19T11:28:34;189.80;;;118.00;;
26201;SDS011;13944;28.562;77.188;2023-01-19T11:31:15;196.17;;;112.27;;
26201;SDS011;13944;28.562;77.188;2023-01-19T11:33:49;171.60;;;96.23;;
26201;SDS011;13944;28.562;77.188;2023-01-19T11:36:23;190.77;;;105.90;;
26201;SDS011;13944;28.562;77.188;2023-01-19T11:38:52;219.23;;;125.27;;
26201;SDS011;13944;28.562;77.188;2023-01-19T11:41:20;231.03;;;132.90;;
26201;SDS011;13944;28.562;77.188;2023-01-19T11:43:48;210.10;;;128.40;;
26201;SDS011;13944;28.562;77.188;2023-01-19T11:46:15;239.97;;;130.00;;
26201;SDS011;13944;28.562;77.188;2023-01-19T11:48:51;226.23;;;133.53;;
26201;SDS011;13944;28.562;77.188;2023-01-19T11:51:22;226.93;;;133.10;;
26201;SDS011;13944;28.562;77.188;2023-01-19T11:53:51;229.33;;;135.03;;
26201;SDS011;13944;28.562;77.188;2023-01-19T11:56:19;225.63;;;135.17;;
26201;SDS011;13944;28.562;77.188;2023-01-19T11:58:48;239.20;;;135.20;;
26201;SDS011;13944;28.562;77.188;2023-01-19T12:06:18;232.27;;;136.33;;
26201;SDS011;13944;28.562;77.188;2023-01-19T12:08:55;234.87;;;139.23;;
26201;SDS011;13944;28.562;77.188;2023-01-19T12:11:29;236.73;;;137.23;;
26201;SDS011;13944;28.562;77.188;2023-01-19T12:13:56;255.00;;;140.70;;
26201;SDS011;13944;28.562;77.188;2023-01-19T12:16:25;264.07;;;142.20;;
26201;SDS011;13944;28.562;77.188;2023-01-19T12:19:04;243.50;;;141.80;;
26201;SDS011;13944;28.562;77.188;2023-01-19T12:21:32;262.23;;;143.77;;
26201;SDS011;13944;28.562;77.188;2023-01-19T12:26:47;261.00;;;147.73;;
26201;SDS011;13944;28.562;77.188;2023-01-19T12:29:17;261.63;;;152.17;;
26201;SDS011;13944;28.562;77.188;2023-01-19T12:32:08;266.40;;;157.83;;
26201;SDS011;13944;28.562;77.188;2023-01-19T12:34:52;274.00;;;158.73;;
26201;SDS011;13944;28.562;77.188;2023-01-19T12:39:56;272.63;;;160.40;;
26201;SDS011;13944;28.562;77.188;2023-01-19T12:42:23;277.40;;;168.23;;
26201;SDS011;13944;28.562;77.188;2023-01-19T12:45:36;264.27;;;157.63;;
26201;SDS011;13944;28.562;77.188;2023-01-19T12:47:37;276.37;;;162.67;;
26201;SDS011;13944;28.562;77.188;2023-01-19T12:50:12;269.00;;;155.70;;
26201;SDS011;13944;28.562;77.188;2023-01-19T12:52:41;274.87;;;156.93;;
26201;SDS011;13944;28.562;77.188;2023-01-19T12:57:57;264.60;;;153.27;;
26201;SDS011;13944;28.562;77.188;2023-01-19T13:00:32;270.10;;;153.73;;
26201;SDS011;13944;28.562;77.188;2023-01-19T13:03:01;259.70;;;154.63;;
26201;SDS011;13944;28.562;77.188;2023-01-19T13:13:27;287.07;;;156.47;;
26201;SDS011;13944;28.562;77.188;2023-01-19T13:15:54;267.47;;;158.03;;
26201;SDS011;13944;28.562;77.188;2023-01-19T13:18:28;274.07;;;166.57;;
26201;SDS011;13944;28.562;77.188;2023-01-19T13:21:02;314.23;;;183.30;;
26201;SDS011;13944;28.562;77.188;2023-01-19T13:26:18;308.57;;;187.87;;
26201;SDS011;13944;28.562;77.188;2023-01-19T13:28:47;321.37;;;198.70;;
26201;SDS011;13944;28.562;77.188;2023-01-19T13:31:15;314.57;;;195.47;;
26201;SDS011;13944;28.562;77.188;2023-01-19T13:33:45;306.60;;;200.13;;
26201;SDS011;13944;28.562;77.188;2023-01-19T13:36:15;309.30;;;193.37;;
26201;SDS011;13944;28.562;77.188;2023-01-19T13:38:44;309.47;;;192.63;;
26201;SDS011;13944;28.562;77.188;2023-01-19T13:41:15;306.87;;;194.37;;
26201;SDS011;13944;28.562;77.188;2023-01-19T13:43:43;312.60;;;193.17;;
26201;SDS011;13944;28.562;77.188;2023-01-19T13:46:10;314.40;;;195.67;;
26201;SDS011;13944;28.562;77.188;2023-01-19T13:48:38;291.80;;;188.73;;
26201;SDS011;13944;28.562;77.188;2023-01-19T13:51:06;298.20;;;183.40;;
26201;SDS011;13944;28.562;77.188;2023-01-19T13:53:33;273.40;;;168.50;;
26201;SDS011;13944;28.562;77.188;2023-01-19T13:56:17;295.40;;;174.33;;
26201;SDS011;13944;28.562;77.188;2023-01-19T14:01:23;291.83;;;171.73;;
26201;SDS011;13944;28.562;77.188;2023-01-19T14:03:50;287.50;;;178.43;;
26201;SDS011;13944;28.562;77.188;2023-01-19T14:06:36;293.20;;;188.70;;
26201;SDS011;13944;28.562;77.188;2023-01-19T14:11:36;297.77;;;193.77;;
26201;SDS011;13944;28.562;77.188;2023-01-19T14:14:02;306.73;;;199.53;;
26201;SDS011;13944;28.562;77.188;2023-01-19T14:16:29;302.87;;;195.13;;
26201;SDS011;13944;28.562;77.188;2023-01-19T14:18:59;318.83;;;204.50;;
26201;SDS011;13944;28.562;77.188;2023-01-19T14:21:38;354.10;;;228.83;;
26201;SDS011;13944;28.562;77.188;2023-01-19T14:24:09;371.57;;;230.33;;
26201;SDS011;13944;28.562;77.188;2023-01-19T14:26:48;352.60;;;227.67;;
26201;SDS011;13944;28.562;77.188;2023-01-19T14:29:36;337.60;;;218.97;;
26201;SDS011;13944;28.562;77.188;2023-01-19T14:32:12;336.00;;;222.63;;
26201;SDS011;13944;28.562;77.188;2023-01-19T14:37:18;366.80;;;232.93;;
26201;SDS011;13944;28.562;77.188;2023-01-19T14:39:47;359.47;;;238.77;;
26201;SDS011;13944;28.562;77.188;2023-01-19T14:42:15;377.33;;;259.33;;
26201;SDS011;13944;28.562;77.188;2023-01-19T14:44:43;394.50;;;257.03;;
26201;SDS011;13944;28.562;77.188;2023-01-19T14:47:20;376.53;;;252.83;;
26201;SDS011;13944;28.562;77.188;2023-01-19T14:49:47;363.37;;;232.43;;
26201;SDS011;13944;28.562;77.188;2023-01-19T14:54:59;343.10;;;226.03;;
26201;SDS011;13944;28.562;77.188;2023-01-19T14:57:27;321.07;;;212.77;;
26201;SDS011;13944;28.562;77.188;2023-01-19T14:59:54;329.67;;;209.50;;
26201;SDS011;13944;28.562;77.188;2023-01-19T15:02:21;322.30;;;213.03;;
26201;SDS011;13944;28.562;77.188;2023-01-19T15:04:48;299.63;;;184.43;;
26201;SDS011;13944;28.562;77.188;2023-01-19T15:07:19;293.93;;;188.40;;